Time;durP1;ratioP1;P1;durP2;ratioP2;P2;SDS_P1;SDS_P2;PMS_P1;PMS_P2;Temp;Humidity;BMP_temperature;BMP_pressure;BME280_temperature;BME280_humidity;BME280_pressure;Samples;Min_cycle;Max_cycle;Signal;HPM_P1;HPM_P2
2021/09/26 08:02:11;;;;;;;9.23;5.60;;;;;;;17.21;100.00;99090.81;5150302;27;20693;-84
2021/09/26 08:05:06;;;;;;;;;;;;;;;;;;;;;
2021/09/26 08:08:26;;;;;;;11.85;5.38;;;;;;;17.83;99.22;99094.19;5149978;27;20424;-83
2021/09/26 08:14:13;;;;;;;9.27;4.65;;;;;;;18.27;95.74;99098.66;5056091;28;20492;-83
2021/09/26 08:20:07;;;;;;;8.32;5.45;;;;;;;18.30;96.56;99106.44;5089244;28;20048;-83
2021/09/26 08:26:25;;;;;;;14.00;6.03;;;;;;;18.33;96.25;99120.53;5095802;28;20082;-83
2021/09/26 08:28:52;;;;;;;7.05;4.28;;;;;;;18.37;96.30;99127.25;5118016;27;20047;-83
2021/09/26 08:31:25;;;;;;;5.63;4.38;;;;;;;18.47;96.69;99134.09;5129090;28;20377;-83
2021/09/26 08:33:52;;;;;;;7.38;4.47;;;;;;;18.58;97.12;99136.03;5125338;27;20379;-83
2021/09/26 08:36:20;;;;;;;10.70;4.45;;;;;;;18.60;94.97;99133.88;5122569;27;20101;-83
2021/09/26 08:38:58;;;;;;;5.25;4.25;;;;;;;18.72;93.91;99128.38;5100963;27;20074;-83
2021/09/26 08:41:34;;;;;;;9.43;5.18;;;;;;;18.78;93.72;99138.41;5149514;27;20512;-83
2021/09/26 08:44:01;;;;;;;8.43;4.88;;;;;;;18.84;94.44;99139.38;5149701;27;20104;-83
2021/09/26 08:49:41;;;;;;;5.00;4.20;;;;;;;18.89;93.12;99151.41;5105949;28;20043;-83
2021/09/26 08:52:10;;;;;;;12.77;4.28;;;;;;;18.92;93.15;99159.19;5103681;28;20050;-83
2021/09/26 08:54:38;;;;;;;12.43;4.47;;;;;;;18.89;93.05;99169.81;5107918;28;20052;-83
2021/09/26 08:59:49;;;;;;;8.68;4.93;;;;;;;19.28;91.53;99150.88;5107386;28;20055;-84
2021/09/26 09:02:18;;;;;;;9.57;5.50;;;;;;;19.49;92.13;99162.34;5108049;28;20052;-83
2021/09/26 09:05:03;;;;;;;9.48;5.10;;;;;;;19.47;89.74;99176.38;5120654;27;20055;-83
2021/09/26 09:08:12;;;;;;;7.88;4.93;;;;;;;19.46;90.90;99160.91;5108022;28;20097;-83
2021/09/26 09:14:12;;;;;;;9.18;5.70;;;;;;;19.62;88.89;99162.91;5119208;27;20084;-83
2021/09/26 09:16:39;;;;;;;7.70;4.38;;;;;;;19.90;89.89;99164.03;5098982;27;20131;-83
2021/09/26 09:19:23;;;;;;;7.13;5.07;;;;;;;19.94;88.49;99156.09;5094246;28;20045;-83
2021/09/26 09:22:52;;;;;;;11.65;5.40;;;;;;;20.06;88.01;99167.09;5100978;28;20040;-82
2021/09/26 09:29:10;;;;;;;7.80;5.05;;;;;;;20.14;88.11;99161.16;4986119;28;20057;-83
2021/09/26 09:32:18;;;;;;;9.23;4.95;;;;;;;20.32;88.88;99154.56;5113193;28;20100;-83
2021/09/26 09:35:30;;;;;;;8.63;5.50;;;;;;;20.50;87.02;99154.38;5031463;28;20468;-83
2021/09/26 09:37:57;;;;;;;10.18;5.22;;;;;;;20.57;88.18;99165.22;5075876;28;20448;-83
2021/09/26 09:40:35;;;;;;;13.70;5.65;;;;;;;20.67;86.38;99172.88;5094325;28;20048;-84
2021/09/26 09:43:52;;;;;;;12.40;5.00;;;;;;;20.64;87.26;99167.81;5093999;28;20048;-83
2021/09/26 09:49:27;;;;;;;9.65;5.60;;;;;;;20.65;87.19;99166.72;4998632;28;20520;-84
2021/09/26 09:51:57;;;;;;;11.32;5.13;;;;;;;20.46;87.34;99167.00;5110953;28;20076;-84
2021/09/26 09:54:33;;;;;;;6.93;5.15;;;;;;;20.38;88.47;99161.84;5094185;28;20079;-84
2021/09/26 09:57:14;;;;;;;15.73;6.68;;;;;;;20.41;88.40;99169.63;5094107;28;20055;-84
2021/09/26 09:59:44;;;;;;;15.27;6.32;;;;;;;20.46;88.68;99174.41;5094269;28;20047;-84
2021/09/26 10:02:40;;;;;;;;;;;;;;;20.42;88.76;99167.75;5093867;28;20051;-84
2021/09/26 10:08:48;;;;;;;14.38;5.15;;;;;;;20.51;92.04;99175.34;5054104;28;20048;-84
2021/09/26 10:11:19;;;;;;;15.40;5.78;;;;;;;20.38;93.63;99152.75;5104416;27;20054;-84
2021/09/26 10:17:08;;;;;;;10.85;5.22;;;;;;;20.27;93.25;99158.09;5119395;27;20107;-84
2021/09/26 10:19:36;;;;;;;9.52;5.00;;;;;;;20.31;93.64;99170.31;5133937;27;20074;-84
2021/09/26 10:22:45;;;;;;;8.75;4.95;;;;;;;20.40;92.55;99176.28;5134185;27;20078;-84
2021/09/26 10:25:52;;;;;;;11.23;5.18;;;;;;;20.39;93.28;99159.97;5083728;28;20054;-84
2021/09/26 10:28:33;;;;;;;8.57;5.25;;;;;;;20.41;93.95;99157.78;5091557;27;20079;-84
2021/09/26 10:31:10;;;;;;;12.40;5.20;;;;;;;20.65;93.61;99169.50;5113693;28;20052;-84
2021/09/26 10:33:46;;;;;;;9.30;4.72;;;;;;;20.49;92.42;99160.13;5113893;28;20075;-84
2021/09/26 10:36:18;;;;;;;6.68;5.22;;;;;;;20.72;91.96;99159.16;5092910;28;20048;-84
2021/09/26 10:38:48;;;;;;;7.97;5.57;;;;;;;20.92;92.87;99157.81;5092932;28;20055;-84
2021/09/26 10:41:15;;;;;;;9.60;5.65;;;;;;;20.89;91.77;99158.31;5107114;27;20054;-84
2021/09/26 10:43:43;;;;;;;13.57;5.47;;;;;;;20.95;90.24;99162.81;5105768;28;20491;-84
2021/09/26 10:46:15;;;;;;;10.05;5.57;;;;;;;20.84;90.56;99151.59;5114859;27;20504;-84
2021/09/26 10:49:03;;;;;;;11.20;5.60;;;;;;;20.83;90.66;99158.22;5134176;27;20043;-84
2021/09/26 10:51:56;;;;;;;9.85;5.15;;;;;;;20.73;91.13;99155.31;5126541;27;20059;-84
2021/09/26 10:54:41;;;;;;;8.95;5.63;;;;;;;20.88;93.03;99162.16;5113100;28;20465;-84
2021/09/26 10:57:33;;;;;;;11.70;7.00;;;;;;;20.82;87.54;99147.41;5124360;27;20478;-85
2021/09/26 11:00:03;;;;;;;8.80;5.90;;;;;;;20.77;84.35;99139.88;5134258;27;20051;-84
2021/09/26 11:02:42;;;;;;;7.93;5.60;;;;;;;20.68;83.64;99133.13;5119513;27;20112;-84
2021/09/26 11:05:31;;;;;;;9.98;6.82;;;;;;;20.65;83.95;99159.31;5133814;27;20047;-84
2021/09/26 11:08:00;;;;;;;7.65;6.15;;;;;;;20.56;84.57;99162.72;5129692;27;20445;-83
2021/09/26 11:10:46;;;;;;;10.85;6.30;;;;;;;20.56;82.37;99162.72;5112996;28;20047;-83
2021/09/26 11:13:21;;;;;;;7.47;6.28;;;;;;;20.63;83.72;99164.22;5113196;28;20104;-83
2021/09/26 11:16:16;;;;;;;10.00;6.68;;;;;;;20.56;83.15;99144.22;5113017;27;20043;-84
2021/09/26 11:18:56;;;;;;;8.13;6.28;;;;;;;20.58;82.66;99153.09;5110257;28;20060;-85
2021/09/26 11:21:48;;;;;;;11.95;6.53;;;;;;;20.72;82.49;99159.16;5109977;28;20047;-85
2021/09/26 11:24:36;;;;;;;8.30;6.50;;;;;;;20.57;84.74;99136.78;5108851;27;20051;-85
2021/09/26 11:27:10;;;;;;;9.30;7.25;;;;;;;20.68;84.26;99144.16;5125524;27;20052;-85
2021/09/26 11:30:14;;;;;;;9.73;6.78;;;;;;;20.78;83.46;99149.84;5119196;27;20490;-88
2021/09/26 11:32:41;;;;;;;8.50;6.57;;;;;;;20.62;84.48;99134.09;5133757;27;20051;-85
2021/09/26 11:35:22;;;;;;;11.30;7.30;;;;;;;20.55;83.61;99128.75;5104654;27;20108;-85
2021/09/26 11:37:58;;;;;;;10.70;7.57;;;;;;;20.41;84.90;99119.13;5092633;28;20048;-85
2021/09/26 11:41:00;;;;;;;8.07;6.20;;;;;;;20.43;84.26;99128.84;5092016;28;20131;-84
2021/09/26 11:43:31;;;;;;;9.95;6.85;;;;;;;20.38;85.84;99123.22;5092437;28;20082;-85
2021/09/26 11:45:59;;;;;;;10.07;7.43;;;;;;;20.51;87.41;99111.84;5092293;28;20139;-85
2021/09/26 11:48:38;;;;;;;10.43;7.47;;;;;;;20.54;88.42;99117.97;5091611;28;20051;-85
2021/09/26 11:51:17;;;;;;;9.32;7.60;;;;;;;20.34;89.98;99102.75;5093198;28;20068;-85
2021/09/26 11:53:46;;;;;;;10.40;7.97;;;;;;;20.36;89.14;99102.47;5092932;28;20101;-85
2021/09/26 11:56:22;;;;;;;11.15;7.97;;;;;;;20.34;88.57;99105.50;5091192;28;20052;-85
2021/09/26 11:58:54;;;;;;;12.45;8.02;;;;;;;20.41;90.54;99095.09;5092660;28;20052;-85
2021/09/26 12:01:32;;;;;;;11.13;8.10;;;;;;;20.37;89.93;99080.16;5092253;28;20040;-85
2021/09/26 12:04:12;;;;;;;8.70;6.93;;;;;;;20.35;89.14;99093.34;5092714;28;20048;-85
2021/09/26 12:06:42;;;;;;;9.45;7.47;;;;;;;20.27;91.23;99068.94;5091873;28;20048;-85
2021/09/26 12:09:09;;;;;;;10.73;7.25;;;;;;;20.38;92.51;99092.00;5092554;28;20071;-85
2021/09/26 12:11:51;;;;;;;10.63;7.53;;;;;;;20.29;92.74;99086.94;5092517;28;20071;-85
2021/09/26 12:14:29;;;;;;;8.75;6.72;;;;;;;20.13;92.47;99079.47;5091880;28;20055;-85
2021/09/26 12:16:56;;;;;;;12.15;7.22;;;;;;;20.05;91.26;99100.00;5091905;28;20503;-86
2021/09/26 12:19:25;;;;;;;10.02;6.60;;;;;;;19.97;nan;99106.78;5092344;28;20052;-86
2021/09/26 12:22:01;;;;;;;8.00;6.38;;;;;;;19.88;93.35;99107.44;5092452;28;20073;-85
2021/09/26 12:24:34;;;;;;;12.38;7.03;;;;;;;20.13;92.68;99107.91;5094423;28;20047;-85
2021/09/26 12:27:15;;;;;;;8.63;6.35;;;;;;;20.37;92.95;99110.50;5104053;28;20487;-86
2021/09/26 12:29:52;;;;;;;9.95;6.82;;;;;;;20.69;90.63;99102.47;5112713;28;20051;-87
2021/09/26 12:32:20;;;;;;;8.48;6.43;;;;;;;21.01;87.41;99092.72;5112573;28;20043;-86
2021/09/26 12:34:48;;;;;;;9.10;6.97;;;;;;;21.14;86.46;99073.00;5112167;28;20052;-87
2021/09/26 12:37:18;;;;;;;13.00;6.20;;;;;;;21.25;82.98;99082.25;5112084;28;20487;-86
2021/09/26 12:39:51;;;;;;;7.90;6.00;;;;;;;21.29;81.90;99069.59;5112169;28;20047;-87
2021/09/26 12:42:26;;;;;;;9.80;5.82;;;;;;;21.42;81.06;99070.28;5102316;28;20131;-86
2021/09/26 12:44:59;;;;;;;8.45;6.93;;;;;;;21.38;81.77;99067.22;5098021;28;20047;-86
2021/09/26 12:47:31;;;;;;;10.75;7.03;;;;;;;21.50;79.70;99067.13;5114581;27;20047;-86
2021/09/26 12:50:00;;;;;;;12.27;5.88;;;;;;;21.60;80.35;99074.69;5129456;27;20043;-86
2021/09/26 12:52:30;;;;;;;9.13;6.78;;;;;;;21.54;79.53;99071.88;5096078;28;20052;-87
2021/09/26 12:55:02;;;;;;;8.48;6.05;;;;;;;21.54;80.04;99065.47;5095120;28;20051;-87
2021/09/26 12:57:33;;;;;;;8.50;6.30;;;;;;;21.49;80.37;99060.69;5130028;27;20047;-86
2021/09/26 13:00:18;;;;;;;8.55;6.85;;;;;;;21.63;81.91;99076.91;5126147;27;20142;-87
2021/09/26 13:02:51;;;;;;;9.05;6.60;;;;;;;21.80;79.51;99072.13;5115345;28;20051;-86
2021/09/26 13:05:28;;;;;;;7.55;6.70;;;;;;;21.70;80.06;99050.72;5095626;28;20051;-87
2021/09/26 13:08:02;;;;;;;9.50;6.40;;;;;;;21.91;77.63;99051.75;5097650;28;20491;-87
2021/09/26 13:10:32;;;;;;;8.13;5.82;;;;;;;21.99;78.48;99055.16;5115577;28;20055;-87
2021/09/26 13:13:13;;;;;;;6.85;6.15;;;;;;;21.84;78.16;99064.13;5131826;27;20051;-87
2021/09/26 13:15:42;;;;;;;7.25;5.95;;;;;;;21.79;78.70;99061.31;5136572;27;20057;-86
2021/09/26 13:18:30;;;;;;;6.60;5.65;;;;;;;21.73;79.09;99064.03;5114385;27;20093;-87
2021/09/26 13:21:11;;;;;;;7.88;5.75;;;;;;;21.61;78.19;99057.81;5115400;28;20097;-87
2021/09/26 13:23:38;;;;;;;8.43;5.97;;;;;;;21.63;80.05;99052.84;5110777;27;20052;-86
2021/09/26 13:26:11;;;;;;;7.93;5.93;;;;;;;21.61;79.53;99057.00;5095389;28;20407;-86
2021/09/26 13:28:51;;;;;;;9.68;6.18;;;;;;;21.56;81.16;99053.06;5121269;27;20051;-86
2021/09/26 13:31:22;;;;;;;7.55;5.70;;;;;;;21.46;80.16;99052.91;5136424;27;20054;-86
2021/09/26 13:33:58;;;;;;;8.43;6.28;;;;;;;21.37;80.24;99057.25;5128428;27;20055;-86
2021/09/26 13:36:35;;;;;;;7.88;6.43;;;;;;;21.44;81.53;99040.44;5115363;28;20047;-86
2021/09/26 13:39:10;;;;;;;11.57;6.90;;;;;;;21.51;80.69;99030.03;5114184;27;20051;-87
2021/09/26 13:41:42;;;;;;;8.88;6.32;;;;;;;21.74;78.63;99042.75;5136147;27;20043;-86
2021/09/26 13:44:16;;;;;;;9.57;6.68;;;;;;;21.87;78.56;99047.84;5135283;27;20077;-86
2021/09/26 13:46:43;;;;;;;8.80;6.68;;;;;;;21.89;79.33;99042.88;5129145;27;20072;-87
2021/09/26 13:49:11;;;;;;;8.98;5.95;;;;;;;21.90;78.57;99047.34;5115200;28;20051;-86
2021/09/26 13:51:40;;;;;;;8.27;5.85;;;;;;;21.84;78.45;99036.47;5115776;27;20131;-87
2021/09/26 13:54:08;;;;;;;8.88;6.10;;;;;;;21.95;77.88;99045.69;5115657;27;20047;-86
2021/09/26 13:56:35;;;;;;;9.00;6.45;;;;;;;21.91;78.29;99028.78;5115525;27;20039;-86
2021/09/26 13:59:07;;;;;;;10.05;6.47;;;;;;;21.88;78.37;99037.63;5094560;28;20056;-86
2021/09/26 14:01:34;;;;;;;7.28;5.38;;;;;;;21.99;79.40;99047.66;5108898;27;20055;-87
2021/09/26 14:04:36;;;;;;;7.57;6.18;;;;;;;21.92;78.84;99033.25;5114591;28;20044;-86
2021/09/26 14:07:03;;;;;;;7.18;6.20;;;;;;;21.97;78.70;99033.28;5112406;28;20146;-87
2021/09/26 14:09:30;;;;;;;11.18;6.25;;;;;;;22.00;79.13;99029.16;5115867;27;20074;-86
2021/09/26 14:12:00;;;;;;;9.15;6.35;;;;;;;21.99;78.76;99028.28;5106352;27;20048;-86
2021/09/26 14:14:29;;;;;;;8.50;6.10;;;;;;;21.92;78.74;99028.53;5114164;27;20058;-86
2021/09/26 14:20:23;;;;;;;8.15;6.75;;;;;;;21.94;79.95;99024.66;5110698;27;20112;-86
2021/09/26 14:23:29;;;;;;;11.13;6.10;;;;;;;22.04;78.70;99033.03;5113673;28;20130;-87
2021/09/26 14:26:35;;;;;;;7.22;6.00;;;;;;;21.87;77.75;99014.63;5127484;27;20054;-86
2021/09/26 14:45:59;;;;;;;9.20;6.18;;;;;;;21.78;79.25;99018.16;4982820;28;20061;-86
2021/09/26 14:48:26;;;;;;;11.15;6.90;;;;;;;21.62;79.03;99006.94;5050915;28;20109;-86
2021/09/26 14:50:53;;;;;;;10.07;6.55;;;;;;;21.50;80.10;98996.03;5124156;27;20047;-86
2021/09/26 14:53:20;;;;;;;8.93;5.95;;;;;;;21.54;80.64;99015.69;5113547;28;20047;-86
2021/09/26 14:55:47;;;;;;;8.38;6.18;;;;;;;21.36;81.69;99005.78;5113241;28;20051;-86
2021/09/26 14:58:15;;;;;;;9.38;6.70;;;;;;;21.18;81.49;99002.28;5131841;27;20059;-87
2021/09/26 15:00:43;;;;;;;8.65;6.45;;;;;;;21.08;82.49;99006.88;5121949;27;20075;-88
2021/09/26 15:03:12;;;;;;;8.40;5.70;;;;;;;21.02;81.36;99015.09;5129967;27;20092;-86
2021/09/26 15:05:41;;;;;;;10.43;6.85;;;;;;;20.95;83.06;99036.53;5133590;27;20104;-86
2021/09/26 15:08:08;;;;;;;8.85;6.70;;;;;;;20.89;83.17;99047.78;5110613;27;20044;-85
2021/09/26 15:10:35;;;;;;;6.10;5.20;;;;;;;20.58;82.70;99041.78;5126346;27;20508;-86
2021/09/26 15:13:02;;;;;;;7.13;5.47;;;;;;;20.32;85.26;99069.84;5130100;27;20062;-85
2021/09/26 15:19:52;;;;;;;;;;;;;;;;;;;;;
2021/09/26 15:25:56;;;;;;;10.70;6.63;;;;;;;18.87;96.95;99086.59;5070057;28;20051;-86
2021/09/26 15:35:35;;;;;;;;;;;;;;;18.70;98.13;99105.75;5111148;28;20054;-85
2021/09/26 15:38:02;;;;;;;10.55;6.53;;;;;;;18.73;98.09;99113.53;5112000;28;20047;-85
2021/09/26 15:44:11;;;;;;;12.93;6.78;;;;;;;18.52;98.59;99087.44;5112123;28;20632;-84
2021/09/26 15:54:25;;;;;;;;;;;;;;;;;;;;;
2021/09/26 16:08:03;;;;;;;9.52;6.10;;;;;;;18.55;98.68;99087.78;4990291;28;20043;-85
2021/09/26 16:10:32;;;;;;;10.02;7.40;;;;;;;18.40;100.00;99085.50;4992343;28;20054;-85
2021/09/26 16:12:59;;;;;;;9.73;7.22;;;;;;;18.42;100.00;99093.53;4992556;28;20062;-85
2021/09/26 16:15:28;;;;;;;9.15;7.00;;;;;;;18.34;100.00;99097.47;4991502;28;20053;-85
2021/09/26 16:17:56;;;;;;;10.07;6.90;;;;;;;18.43;99.39;99080.59;4992730;28;20421;-85
2021/09/26 16:20:29;;;;;;;7.95;6.78;;;;;;;18.37;97.92;99083.22;4992597;28;20047;-86
2021/09/26 16:22:58;;;;;;;9.65;7.30;;;;;;;18.15;100.00;99087.63;4993057;28;20046;-85
2021/09/26 16:25:30;;;;;;;13.80;8.07;;;;;;;18.26;100.00;99095.06;4996297;28;20332;-85
2021/09/26 16:28:00;;;;;;;15.95;9.13;;;;;;;18.36;100.00;99088.97;4995466;28;20057;-85
2021/09/26 16:30:27;;;;;;;11.65;6.78;;;;;;;18.37;100.00;99096.16;4996980;28;20386;-85
2021/09/26 16:32:54;;;;;;;9.60;7.07;;;;;;;18.24;100.00;99088.13;4995297;28;20466;-85
2021/09/26 16:35:53;;;;;;;9.90;7.45;;;;;;;18.05;100.00;99088.22;4995391;28;20535;-84
2021/09/26 16:38:31;;;;;;;9.77;7.60;;;;;;;18.02;100.00;99097.75;4989603;28;20056;-85
2021/09/26 16:41:02;;;;;;;9.40;7.15;;;;;;;18.02;100.00;99103.25;4995540;28;20205;-85
2021/09/26 16:43:31;;;;;;;11.43;8.00;;;;;;;18.01;100.00;99109.84;4995234;28;20043;-85
2021/09/26 16:46:01;;;;;;;10.23;8.05;;;;;;;18.12;100.00;99121.94;4995661;28;20104;-85
2021/09/26 16:48:29;;;;;;;17.52;11.70;;;;;;;17.99;100.00;99101.00;4994887;28;20057;-85
2021/09/26 16:50:57;;;;;;;13.43;10.27;;;;;;;18.03;100.00;99120.59;4995720;28;20540;-85
2021/09/26 16:53:56;;;;;;;16.83;10.35;;;;;;;18.06;100.00;99122.88;4995686;28;20052;-85
2021/09/26 16:57:01;;;;;;;;;;;;;;;;;;;;;
2021/09/26 16:59:29;;;;;;;13.30;8.20;;;;;;;17.80;100.00;99113.09;4992824;28;20505;-84
2021/09/26 17:02:11;;;;;;;12.65;9.40;;;;;;;17.83;100.00;99129.13;4996729;28;20108;-85
2021/09/26 17:07:40;;;;;;;13.65;9.95;;;;;;;17.83;100.00;99140.13;4994320;28;20537;-85
2021/09/26 17:10:09;;;;;;;13.43;9.38;;;;;;;17.86;100.00;99139.66;4983875;28;20104;-85
2021/09/26 17:12:42;;;;;;;13.90;9.52;;;;;;;17.92;100.00;99151.66;4995356;28;20058;-85
2021/09/26 17:15:18;;;;;;;14.40;9.15;;;;;;;17.76;100.00;99147.63;4994046;28;20050;-85
2021/09/26 17:17:59;;;;;;;12.50;8.98;;;;;;;17.65;100.00;99128.06;4995394;28;20430;-85
2021/09/26 17:20:29;;;;;;;13.02;9.30;;;;;;;17.68;100.00;99157.03;4993275;28;20494;-85
2021/09/26 17:22:57;;;;;;;26.90;9.63;;;;;;;17.59;100.00;99156.50;4994441;28;20478;-85
2021/09/26 17:25:35;;;;;;;13.05;8.88;;;;;;;17.52;100.00;99156.59;4994305;28;20387;-85
2021/09/26 17:28:06;;;;;;;13.13;8.93;;;;;;;17.60;100.00;99158.19;4993887;28;20061;-85
2021/09/26 17:30:36;;;;;;;12.32;9.55;;;;;;;17.62;100.00;99155.19;4994147;28;20490;-85
2021/09/26 17:33:14;;;;;;;14.55;9.40;;;;;;;17.51;100.00;99149.41;4993764;28;20089;-84
2021/09/26 17:36:20;;;;;;;13.52;9.60;;;;;;;17.42;100.00;99150.78;4994154;28;20046;-85
2021/09/26 17:39:05;;;;;;;13.25;8.75;;;;;;;17.34;100.00;99157.44;4993469;28;20112;-85
2021/09/26 17:41:41;;;;;;;10.60;8.02;;;;;;;17.39;100.00;99162.25;4994931;28;20054;-84
2021/09/26 17:44:11;;;;;;;12.38;9.32;;;;;;;17.38;100.00;99159.72;4994255;28;20051;-85
2021/09/26 17:46:39;;;;;;;11.23;8.93;;;;;;;17.41;100.00;99164.75;5011667;28;20481;-84
2021/09/26 17:49:11;;;;;;;13.70;9.70;;;;;;;17.28;100.00;99182.22;5003361;28;20054;-83
2021/09/26 17:51:38;;;;;;;15.25;9.98;;;;;;;17.31;100.00;99182.63;4994584;28;20482;-84
2021/09/26 17:54:12;;;;;;;12.07;9.43;;;;;;;17.28;100.00;99179.47;4994024;28;20137;-84
2021/09/26 17:56:40;;;;;;;14.65;9.07;;;;;;;17.26;100.00;99165.16;4993773;28;20486;-84
2021/09/26 17:59:11;;;;;;;11.35;9.07;;;;;;;17.22;100.00;99167.50;4994403;28;20505;-84
2021/09/26 18:01:39;;;;;;;15.00;9.75;;;;;;;17.26;100.00;99165.16;4993450;28;20118;-84
2021/09/26 18:04:06;;;;;;;14.35;10.68;;;;;;;17.24;100.00;99178.28;4994612;28;20478;-84
2021/09/26 18:06:33;;;;;;;13.45;10.40;;;;;;;17.13;100.00;99171.59;4989598;28;20104;-84
2021/09/26 18:09:00;;;;;;;17.85;10.52;;;;;;;17.09;100.00;99175.91;4994050;28;20050;-85
2021/09/26 18:11:28;;;;;;;13.77;9.63;;;;;;;17.01;100.00;99174.25;4993960;28;20137;-85
2021/09/26 18:13:58;;;;;;;13.30;10.38;;;;;;;16.91;100.00;99155.56;4993631;28;20088;-84
2021/09/26 18:16:27;;;;;;;14.98;10.98;;;;;;;16.88;100.00;99167.00;4994054;28;20061;-84
2021/09/26 18:19:02;;;;;;;20.77;13.55;;;;;;;16.84;100.00;99168.50;4993243;28;20050;-84
2021/09/26 18:21:43;;;;;;;20.30;15.45;;;;;;;16.88;100.00;99178.00;4993841;28;20054;-84
2021/09/26 18:24:11;;;;;;;16.38;13.13;;;;;;;16.85;100.00;99166.59;4991933;28;20046;-84
2021/09/26 18:26:39;;;;;;;18.58;12.77;;;;;;;16.86;100.00;99169.13;4994179;28;20058;-84
2021/09/26 18:32:23;;;;;;;21.02;13.50;;;;;;;16.85;100.00;99194.06;4993092;28;20477;-85
2021/09/26 18:34:51;;;;;;;17.43;13.27;;;;;;;16.85;100.00;99185.81;4998269;28;20046;-84
2021/09/26 18:37:18;;;;;;;18.02;14.05;;;;;;;16.72;100.00;99186.78;4975134;28;20046;-84
2021/09/26 18:39:46;;;;;;;16.80;11.93;;;;;;;16.72;100.00;99178.53;4989887;28;20046;-83
2021/09/26 18:42:17;;;;;;;16.05;11.95;;;;;;;16.79;100.00;99179.31;4993710;28;20410;-84
2021/09/26 18:44:46;;;;;;;18.67;11.93;;;;;;;17.03;100.00;99190.53;4992625;28;20047;-84
2021/09/26 18:47:14;;;;;;;18.02;11.95;;;;;;;16.77;100.00;99174.06;4991989;28;20081;-83
2021/09/26 18:49:41;;;;;;;15.48;10.80;;;;;;;16.90;100.00;99186.00;4992962;28;20069;-84
2021/09/26 18:52:10;;;;;;;19.23;14.07;;;;;;;16.73;100.00;99199.44;4991422;28;20070;-84
2021/09/26 18:54:37;;;;;;;17.10;12.65;;;;;;;16.53;100.00;99181.22;4991937;28;20498;-84
2021/09/26 18:57:04;;;;;;;16.60;12.05;;;;;;;16.49;100.00;99179.16;4992477;28;20054;-84
2021/09/26 18:59:36;;;;;;;17.65;12.55;;;;;;;16.52;100.00;99195.19;4992978;28;20103;-84
2021/09/26 19:02:06;;;;;;;19.35;12.02;;;;;;;16.55;100.00;99201.03;4992739;28;20137;-84
2021/09/26 19:04:33;;;;;;;15.98;11.93;;;;;;;16.44;100.00;99180.66;4977735;28;20125;-83
2021/09/26 19:07:02;;;;;;;17.58;12.20;;;;;;;16.46;100.00;99183.19;4984555;28;20486;-83
2021/09/26 19:09:32;;;;;;;17.10;12.88;;;;;;;16.49;100.00;99195.63;4992496;28;20397;-83
2021/09/26 19:12:00;;;;;;;;;;;;;;;16.62;100.00;99201.00;4993511;28;20050;-82
2021/09/26 19:14:28;;;;;;;16.63;12.20;;;;;;;16.46;100.00;99180.44;4990330;28;20384;-84
2021/09/26 19:16:55;;;;;;;16.00;12.05;;;;;;;16.33;100.00;99191.50;4993150;28;20196;-83
2021/09/26 19:19:27;;;;;;;17.98;12.32;;;;;;;16.20;100.00;99190.53;4992926;28;20058;-84
2021/09/26 19:21:55;;;;;;;15.85;12.52;;;;;;;16.09;100.00;99188.47;4992372;28;20081;-84
2021/09/26 19:24:22;;;;;;;14.75;11.27;;;;;;;16.12;100.00;99198.19;4992157;28;20058;-83
2021/09/26 19:26:50;;;;;;;16.77;12.25;;;;;;;16.17;100.00;99201.94;4991731;28;20113;-83
2021/09/26 19:29:21;;;;;;;25.05;12.57;;;;;;;16.28;100.00;99201.22;4992646;28;20058;-83
2021/09/26 19:31:51;;;;;;;20.70;14.20;;;;;;;16.26;100.00;99208.03;4992229;28;20411;-83
2021/09/26 19:34:18;;;;;;;20.65;14.35;;;;;;;16.19;100.00;99191.59;4992297;28;20054;-83
2021/09/26 19:36:45;;;;;;;16.98;13.20;;;;;;;16.34;100.00;99195.94;4991181;28;20555;-83
2021/09/26 19:39:12;;;;;;;21.15;13.30;;;;;;;16.24;100.00;99207.38;4992721;28;20077;-84
2021/09/26 19:41:45;;;;;;;18.00;12.35;;;;;;;16.13;100.00;99197.13;4991809;28;20054;-85
2021/09/26 19:44:14;;;;;;;19.33;12.43;;;;;;;15.96;100.00;99185.81;4992307;28;20500;-85
2021/09/26 19:46:44;;;;;;;17.90;13.57;;;;;;;15.89;100.00;99183.97;4992261;28;20572;-85
2021/09/26 19:52:03;;;;;;;17.75;12.68;;;;;;;16.01;100.00;99205.22;4990589;28;20152;-84
2021/09/26 19:54:37;;;;;;;21.80;13.55;;;;;;;15.97;100.00;99198.47;4992294;28;20073;-84
2021/09/26 19:57:04;;;;;;;15.15;11.95;;;;;;;15.81;100.00;99183.41;4992352;28;20046;-84
2021/09/26 19:59:33;;;;;;;17.40;13.05;;;;;;;15.90;100.00;99193.03;4991326;28;20058;-84
2021/09/26 20:01:59;;;;;;;20.27;13.43;;;;;;;15.82;100.00;99185.91;4992413;28;20050;-84
2021/09/26 20:04:26;;;;;;;20.25;13.80;;;;;;;15.93;100.00;99204.41;4991480;28;20057;-83
2021/09/26 20:06:53;;;;;;;24.50;15.10;;;;;;;15.91;100.00;99201.03;4991765;28;20046;-83
2021/09/26 20:09:20;;;;;;;22.60;13.85;;;;;;;15.88;100.00;99197.88;4992074;28;20120;-83
2021/09/26 20:11:47;;;;;;;20.27;13.57;;;;;;;15.88;100.00;99204.22;4992275;28;20046;-83
2021/09/26 20:14:17;;;;;;;22.00;13.82;;;;;;;15.82;100.00;99191.41;4991911;28;20054;-83
2021/09/26 20:16:46;;;;;;;19.02;13.75;;;;;;;15.76;100.00;99186.72;4989827;28;20101;-83
2021/09/26 20:19:16;;;;;;;18.02;13.50;;;;;;;15.83;100.00;99193.06;4991763;28;20143;-84
2021/09/26 20:21:46;;;;;;;21.58;13.80;;;;;;;15.86;100.00;99202.75;4992005;28;20569;-84
2021/09/26 20:24:17;;;;;;;20.50;14.45;;;;;;;15.87;100.00;99207.19;4991567;28;20077;-84
2021/09/26 20:26:44;;;;;;;20.23;13.63;;;;;;;15.88;100.00;99206.09;4992542;28;20050;-84
2021/09/26 20:29:12;;;;;;;20.23;13.00;;;;;;;15.89;100.00;99191.34;4992146;28;20050;-84
2021/09/26 20:31:40;;;;;;;17.90;13.35;;;;;;;15.91;100.00;99220.25;4990266;28;20042;-83
2021/09/26 20:34:14;;;;;;;20.33;13.52;;;;;;;15.98;100.00;99217.44;4991379;28;20124;-84
2021/09/26 20:36:45;;;;;;;22.05;14.38;;;;;;;15.80;100.00;99209.94;4991490;28;20046;-83
2021/09/26 20:39:13;;;;;;;21.67;13.13;;;;;;;15.83;100.00;99227.88;4990638;28;20104;-83
2021/09/26 20:41:41;;;;;;;21.25;14.15;;;;;;;15.81;100.00;99224.50;4991417;28;20046;-84
2021/09/26 20:44:08;;;;;;;23.83;15.65;;;;;;;15.81;100.00;99219.03;4991025;28;20057;-84
2021/09/26 20:46:35;;;;;;;21.52;14.55;;;;;;;15.82;100.00;99218.81;4991937;28;20057;-84
2021/09/26 20:49:02;;;;;;;20.98;14.90;;;;;;;15.86;100.00;99228.25;4990082;28;20046;-83
2021/09/26 20:51:31;;;;;;;21.35;13.98;;;;;;;15.80;100.00;99223.66;4992267;28;20054;-83
2021/09/26 20:53:58;;;;;;;20.73;13.35;;;;;;;15.74;100.00;99211.63;4991531;28;20054;-84
2021/09/26 20:56:25;;;;;;;19.60;14.55;;;;;;;15.78;100.00;99213.94;4991830;28;20046;-83
2021/09/26 20:58:52;;;;;;;26.45;14.82;;;;;;;15.81;100.00;99221.78;4991394;28;20054;-83
2021/09/26 21:01:22;;;;;;;23.27;14.98;;;;;;;15.69;100.00;99225.16;4991200;28;20505;-83
2021/09/26 21:03:52;;;;;;;24.83;13.77;;;;;;;15.63;100.00;99214.22;4990983;28;20052;-83
2021/09/26 21:06:21;;;;;;;22.83;14.50;;;;;;;15.66;100.00;99219.25;4989768;28;20048;-83
2021/09/26 21:08:49;;;;;;;18.80;14.70;;;;;;;15.70;100.00;99221.34;4993578;28;20441;-83
2021/09/26 21:11:17;;;;;;;23.08;15.10;;;;;;;15.84;100.00;99208.47;4995454;28;20405;-83
2021/09/26 21:13:49;;;;;;;22.70;15.13;;;;;;;15.90;100.00;99224.03;4995365;28;20070;-83
2021/09/26 21:16:22;;;;;;;25.60;15.23;;;;;;;15.78;100.00;99231.25;4993978;28;20532;-84
2021/09/26 21:18:55;;;;;;;26.38;16.50;;;;;;;15.64;100.00;99218.63;4994961;28;20050;-83
2021/09/26 21:21:22;;;;;;;29.27;16.02;;;;;;;15.77;100.00;99224.06;4996149;28;20479;-83
2021/09/26 21:23:55;;;;;;;23.27;15.80;;;;;;;15.64;100.00;99232.31;4995665;28;20062;-83
2021/09/26 21:26:22;;;;;;;22.70;15.05;;;;;;;15.61;100.00;99219.91;4994855;28;20472;-83
2021/09/26 21:28:51;;;;;;;21.45;14.85;;;;;;;15.35;100.00;99205.22;4994140;28;20050;-83
2021/09/26 21:31:26;;;;;;;23.17;15.75;;;;;;;15.46;100.00;99228.41;4994871;28;20050;-83
2021/09/26 21:33:56;;;;;;;19.52;13.25;;;;;;;15.42;100.00;99235.34;4994503;28;20125;-83
2021/09/26 21:36:26;;;;;;;16.52;12.80;;;;;;;15.28;100.00;99215.38;4994352;28;20051;-82
2021/09/26 21:38:54;;;;;;;;;;;;;;;15.37;100.00;99235.13;4993994;28;20129;-83
2021/09/26 21:41:23;;;;;;;19.38;13.98;;;;;;;15.32;100.00;99232.22;4994662;28;20289;-83